Time;durP1;ratioP1;P1;durP2;ratioP2;P2;SDS_P1;SDS_P2;PMS_P1;PMS_P2;Temp;Humidity;BMP_temperature;BMP_pressure;BME280_temperature;BME280_humidity;BME280_pressure;Samples;Min_cycle;Max_cycle;Signal;HPM_P1;HPM_P2
2022/03/19 00:00:58;;;;;;;8.15;7.03;;;;;;;12.88;38.91;102429.87;1805521;78;21029;-64
2022/03/19 00:03:26;;;;;;;7.30;6.28;;;;;;;12.87;38.91;102427.36;1799441;79;21496;-64
2022/03/19 00:05:53;;;;;;;7.55;6.42;;;;;;;12.87;38.92;102435.36;1799327;79;21001;-64
2022/03/19 00:08:20;;;;;;;9.03;7.08;;;;;;;12.83;38.91;102433.41;1799154;79;21090;-64
2022/03/19 00:10:46;;;;;;;7.55;6.37;;;;;;;12.83;38.93;102428.06;1799282;79;20985;-64
2022/03/19 00:13:14;;;;;;;9.28;6.90;;;;;;;12.82;38.94;102430.35;1799259;79;20997;-64
2022/03/19 00:15:41;;;;;;;8.60;6.75;;;;;;;12.81;38.94;102429.16;1799237;79;21537;-63
2022/03/19 00:18:08;;;;;;;9.13;7.47;;;;;;;12.80;38.95;102428.29;1800286;78;20990;-63
2022/03/19 00:20:36;;;;;;;8.28;6.60;;;;;;;12.78;38.96;102420.89;1799431;79;21279;-64
2022/03/19 00:23:05;;;;;;;8.68;7.05;;;;;;;12.77;38.97;102424.05;1799840;79;21021;-64
2022/03/19 00:25:32;;;;;;;9.58;7.42;;;;;;;12.76;38.96;102418.83;1799167;79;21497;-64
2022/03/19 00:27:59;;;;;;;10.35;8.05;;;;;;;12.74;38.98;102410.94;1799311;79;21529;-64
2022/03/19 00:30:25;;;;;;;11.30;8.33;;;;;;;12.74;38.98;102411.42;1799089;79;21005;-64
2022/03/19 00:32:52;;;;;;;10.35;8.08;;;;;;;12.72;38.99;102411.53;1799206;79;21290;-64
2022/03/19 00:35:18;;;;;;;11.78;8.90;;;;;;;12.71;39.00;102400.52;1800099;78;21474;-64
2022/03/19 00:37:51;;;;;;;10.80;9.50;;;;;;;12.71;39.01;102400.52;1799141;79;21064;-63
2022/03/19 00:40:18;;;;;;;11.63;9.20;;;;;;;12.69;39.02;102401.12;1799087;79;21532;-65
2022/03/19 00:42:47;;;;;;;12.15;9.55;;;;;;;12.68;39.03;102403.41;1810882;78;21001;-64
2022/03/19 00:45:14;;;;;;;13.13;9.50;;;;;;;12.66;39.03;102404.01;1831890;78;21204;-64
2022/03/19 00:47:41;;;;;;;12.70;9.55;;;;;;;12.66;39.04;102401.34;1831883;77;21004;-65
2022/03/19 00:50:09;;;;;;;15.43;10.53;;;;;;;12.65;39.03;102404.99;1830981;77;21013;-64
2022/03/19 00:52:36;;;;;;;14.53;10.40;;;;;;;12.65;39.04;102398.33;1831937;78;20998;-64
2022/03/19 00:55:05;;;;;;;14.60;11.33;;;;;;;12.63;39.05;102402.89;1831873;78;21008;-64
2022/03/19 00:57:45;;;;;;;16.12;11.97;;;;;;;12.63;39.07;102398.05;1832192;78;21832;-64
2022/03/19 01:00:14;;;;;;;17.73;12.18;;;;;;;12.62;39.07;102397.70;1831739;78;20974;-64
2022/03/19 01:02:43;;;;;;;17.02;11.60;;;;;;;12.58;39.08;102388.59;1831834;77;21009;-63
2022/03/19 01:05:12;;;;;;;16.00;12.53;;;;;;;12.57;39.09;102388.70;1831777;78;21002;-64
2022/03/19 01:07:42;;;;;;;17.12;12.75;;;;;;;12.56;39.09;102391.86;1822375;77;21028;-64
2022/03/19 01:10:12;;;;;;;19.30;13.70;;;;;;;12.55;39.10;102397.30;1799387;79;21291;-65
2022/03/19 01:12:40;;;;;;;20.17;14.63;;;;;;;12.53;39.12;102384.08;1799381;79;21449;-64
2022/03/19 01:15:09;;;;;;;21.07;14.15;;;;;;;12.52;39.12;102384.22;1799137;79;21230;-65
2022/03/19 01:17:37;;;;;;;22.02;15.50;;;;;;;12.52;39.11;102388.22;1799238;79;21032;-65
2022/03/19 01:20:06;;;;;;;21.87;14.53;;;;;;;12.50;39.13;102386.16;1799261;79;21001;-64
2022/03/19 01:22:34;;;;;;;24.32;17.07;;;;;;;12.49;39.14;102385.77;1799026;79;21138;-64
2022/03/19 01:25:04;;;;;;;24.37;16.37;;;;;;;12.47;39.16;102384.55;1800369;78;21489;-64
2022/03/19 01:27:29;;;;;;;23.40;16.62;;;;;;;12.47;39.15;102389.04;1799041;79;21079;-63
2022/03/19 01:29:56;;;;;;;25.68;17.32;;;;;;;12.46;39.15;102388.20;1799138;79;20982;-63
2022/03/19 01:32:22;;;;;;;23.67;18.52;;;;;;;12.45;39.16;102392.30;1799172;79;21048;-64
2022/03/19 01:34:49;;;;;;;23.22;17.92;;;;;;;12.45;39.14;102385.64;1798133;79;21212;-64
2022/03/19 01:37:15;;;;;;;29.98;21.05;;;;;;;12.43;39.16;102387.08;1793213;79;21065;-65
2022/03/19 01:39:42;;;;;;;30.72;21.07;;;;;;;12.43;39.17;102388.91;1793325;79;21060;-64
2022/03/19 01:42:08;;;;;;;30.25;22.20;;;;;;;12.40;39.18;102380.67;1797949;77;20969;-63
2022/03/19 01:44:36;;;;;;;32.67;21.40;;;;;;;12.41;39.18;102378.84;1825728;78;21482;-63
2022/03/19 01:47:10;;;;;;;34.10;23.30;;;;;;;12.39;39.20;102386.45;1825888;78;21833;-63
2022/03/19 01:49:37;;;;;;;35.65;24.30;;;;;;;12.37;39.20;102383.06;1825656;78;21029;-64
2022/03/19 01:52:05;;;;;;;37.20;25.37;;;;;;;12.36;39.21;102381.38;1825694;78;21029;-64
2022/03/19 01:54:35;;;;;;;39.65;25.77;;;;;;;12.36;39.21;102381.84;1825683;78;21076;-63
2022/03/19 01:57:04;;;;;;;41.55;27.32;;;;;;;12.34;39.21;102381.98;1825694;78;21553;-63
2022/03/19 01:59:35;;;;;;;43.90;27.58;;;;;;;12.34;39.21;102381.98;1824570;78;21006;-64
2022/03/19 02:02:06;;;;;;;45.67;30.75;;;;;;;12.32;39.22;102379.03;1825632;78;21521;-65
2022/03/19 02:04:35;;;;;;;46.35;31.33;;;;;;;12.32;39.23;102383.03;1826019;78;21026;-64
2022/03/19 02:07:05;;;;;;;51.60;33.25;;;;;;;12.31;39.23;102386.19;1825823;78;21138;-63
2022/03/19 02:09:34;;;;;;;50.20;32.90;;;;;;;12.28;39.25;102377.08;1818623;78;21063;-63
2022/03/19 02:12:00;;;;;;;51.45;35.75;;;;;;;12.27;39.24;102375.39;1825563;78;21234;-64
2022/03/19 02:14:27;;;;;;;58.08;36.33;;;;;;;12.26;39.26;102376.34;1825506;78;21116;-64
2022/03/19 02:16:55;;;;;;;57.00;39.30;;;;;;;12.26;39.26;102383.50;1799089;78;21017;-64
2022/03/19 02:19:24;;;;;;;60.55;39.98;;;;;;;12.25;39.27;102384.48;1793299;80;21029;-63
2022/03/19 02:21:52;;;;;;;61.02;40.58;;;;;;;12.22;39.27;102378.87;1793418;79;21090;-64
2022/03/19 02:27:06;;;;;;;65.62;42.62;;;;;;;12.22;39.28;102384.20;1793475;80;20982;-63
2022/03/19 02:29:34;;;;;;;64.60;43.23;;;;;;;12.21;39.31;102386.52;1793322;80;21014;-63
2022/03/19 02:32:04;;;;;;;70.22;46.42;;;;;;;12.17;39.30;102381.89;1794366;78;20997;-63
2022/03/19 02:34:33;;;;;;;73.70;48.98;;;;;;;12.16;39.32;102380.67;1774085;80;21470;-64
2022/03/19 02:37:00;;;;;;;79.12;52.67;;;;;;;12.16;39.33;102379.34;1798820;79;21255;-62
2022/03/19 02:39:30;;;;;;;82.40;51.63;;;;;;;12.15;39.33;102381.16;1799178;79;21478;-64
2022/03/19 02:42:00;;;;;;;84.55;55.10;;;;;;;12.13;39.35;102388.42;1813765;78;20985;-65
2022/03/19 02:44:27;;;;;;;84.90;54.53;;;;;;;12.14;39.32;102389.27;1832141;77;20974;-63
2022/03/19 02:46:57;;;;;;;93.50;55.92;;;;;;;12.13;39.35;102388.88;1831998;78;21006;-65
2022/03/19 02:49:23;;;;;;;90.45;59.30;;;;;;;12.12;39.35;102396.52;1830883;77;21210;-63
2022/03/19 02:51:52;;;;;;;91.40;58.10;;;;;;;12.11;39.36;102397.02;1831823;78;21064;-63
2022/03/19 02:54:22;;;;;;;94.35;61.53;;;;;;;12.10;39.36;102398.45;1831947;78;21060;-63
2022/03/19 02:56:50;;;;;;;98.62;62.55;;;;;;;12.10;39.37;102401.12;1831950;78;21005;-63
2022/03/19 02:59:20;;;;;;;100.47;66.07;;;;;;;12.07;39.38;102392.00;1832168;78;21036;-64
2022/03/19 03:01:52;;;;;;;104.45;68.87;;;;;;;12.06;39.39;102397.83;1831938;78;21226;-64
2022/03/19 03:04:19;;;;;;;106.72;66.67;;;;;;;12.06;39.39;102403.64;1831788;78;21001;-64
2022/03/19 03:06:48;;;;;;;113.17;68.65;;;;;;;12.05;39.38;102405.43;1830691;78;21083;-64
2022/03/19 03:09:20;;;;;;;116.45;73.33;;;;;;;12.04;39.40;102404.23;1832184;78;22054;-62
2022/03/19 03:11:46;;;;;;;118.65;74.20;;;;;;;12.03;39.40;102399.86;1831701;78;20974;-63
2022/03/19 03:14:16;;;;;;;110.72;71.25;;;;;;;12.02;39.39;102407.01;1831232;77;22053;-64
2022/03/19 03:16:44;;;;;;;115.37;74.62;;;;;;;12.02;39.39;102411.49;1831871;77;20981;-64
2022/03/19 03:19:12;;;;;;;117.28;75.87;;;;;;;12.00;39.41;102409.78;1831929;78;21055;-64
2022/03/19 03:21:40;;;;;;;121.82;77.90;;;;;;;12.00;39.41;102415.11;1831970;78;20953;-63
2022/03/19 03:24:08;;;;;;;129.20;79.10;;;;;;;11.99;39.42;102415.21;1816422;78;22061;-63
2022/03/19 03:26:36;;;;;;;125.67;79.77;;;;;;;11.98;39.43;102415.70;1799333;79;21288;-63
2022/03/19 03:29:03;;;;;;;133.18;80.77;;;;;;;11.96;39.43;102410.97;1799143;79;21651;-64
2022/03/19 03:31:29;;;;;;;134.57;83.37;;;;;;;11.96;39.44;102412.30;1799221;79;21001;-66
2022/03/19 03:33:57;;;;;;;137.95;86.28;;;;;;;11.96;39.46;102419.45;1799265;79;21509;-64
2022/03/19 03:36:24;;;;;;;130.87;85.20;;;;;;;11.95;39.44;102418.58;1799099;79;21073;-63
2022/03/19 03:38:52;;;;;;;136.95;85.83;;;;;;;11.94;39.44;102416.05;1799336;79;21789;-63
2022/03/19 03:41:19;;;;;;;141.62;88.75;;;;;;;11.93;39.45;102420.50;1806021;78;21052;-64
2022/03/19 03:43:47;;;;;;;144.00;89.80;;;;;;;11.92;39.47;102424.14;1831985;77;20993;-63
2022/03/19 03:46:13;;;;;;;144.90;92.02;;;;;;;11.91;39.46;102418.92;1831932;77;21009;-63
2022/03/19 03:48:41;;;;;;;139.77;88.78;;;;;;;11.91;39.47;102421.09;1831959;78;21052;-64
2022/03/19 03:51:11;;;;;;;141.57;90.67;;;;;;;11.90;39.47;102431.41;1831956;77;21049;-64
2022/03/19 03:53:38;;;;;;;152.95;92.40;;;;;;;11.90;39.45;102430.53;1832016;78;20974;-64
2022/03/19 03:56:06;;;;;;;149.65;93.65;;;;;;;11.88;39.47;102427.97;1831947;78;21013;-63
2022/03/19 03:58:32;;;;;;;147.75;97.22;;;;;;;11.88;39.46;102424.42;1830740;78;20982;-63
2022/03/19 04:00:59;;;;;;;162.20;99.25;;;;;;;11.86;39.49;102424.56;1831907;77;21017;-64
2022/03/19 04:03:27;;;;;;;157.18;97.17;;;;;;;11.86;39.48;102428.56;1831899;77;20986;-63
2022/03/19 04:05:55;;;;;;;157.75;98.47;;;;;;;11.85;39.49;102424.18;1831873;77;21024;-64
2022/03/19 04:08:22;;;;;;;162.88;100.92;;;;;;;11.85;39.50;102422.84;1831966;78;21060;-64
2022/03/19 04:10:48;;;;;;;155.93;96.85;;;;;;;11.84;39.49;102422.95;1831968;78;20986;-64
2022/03/19 04:13:15;;;;;;;151.63;96.82;;;;;;;11.83;39.50;102422.11;1831806;78;21072;-64
2022/03/19 04:15:42;;;;;;;156.12;97.95;;;;;;;11.83;39.50;102424.77;1830710;78;21217;-65
2022/03/19 04:18:08;;;;;;;153.35;94.75;;;;;;;11.82;39.50;102429.75;1831774;77;20986;-63
2022/03/19 04:20:36;;;;;;;149.42;94.25;;;;;;;11.81;39.50;102425.37;1826607;78;20973;-63
2022/03/19 04:23:03;;;;;;;150.30;93.00;;;;;;;11.81;39.49;102425.37;1831929;78;21043;-64
2022/03/19 04:25:29;;;;;;;141.30;90.32;;;;;;;11.79;39.51;102428.13;1831751;78;21522;-64
2022/03/19 04:27:57;;;;;;;137.80;89.77;;;;;;;11.80;39.51;102431.64;1831895;78;20998;-64
2022/03/19 04:30:26;;;;;;;143.32;90.07;;;;;;;11.78;39.50;102427.78;1831822;78;20984;-63
2022/03/19 04:32:57;;;;;;;142.07;87.42;;;;;;;11.78;39.50;102438.44;1806452;78;20993;-63
2022/03/19 04:38:22;;;;;;;130.70;87.42;;;;;;;11.77;39.51;102446.04;1799174;79;21533;-64
2022/03/19 04:40:50;;;;;;;131.82;86.20;;;;;;;11.77;39.52;102446.53;1811304;78;21295;-64
2022/03/19 04:43:17;;;;;;;134.57;84.90;;;;;;;11.75;39.52;102444.45;1831824;78;21060;-64
2022/03/19 04:45:44;;;;;;;138.32;87.75;;;;;;;11.75;39.54;102443.13;1831820;78;20994;-64
2022/03/19 04:48:10;;;;;;;139.77;84.87;;;;;;;11.75;39.54;102448.45;1830637;78;20955;-63
2022/03/19 04:50:43;;;;;;;136.07;84.65;;;;;;;11.73;39.56;102445.89;1832014;77;21048;-63
2022/03/19 04:53:10;;;;;;;135.40;85.15;;;;;;;11.73;39.55;102445.89;1831890;78;21079;-64
2022/03/19 04:55:38;;;;;;;135.10;85.28;;;;;;;11.74;39.54;102446.73;1831744;78;21001;-63
2022/03/19 04:58:07;;;;;;;126.55;81.78;;;;;;;11.75;39.55;102455.11;1831869;77;20970;-63
2022/03/19 05:00:37;;;;;;;124.45;83.78;;;;;;;11.74;39.54;102453.39;1831796;77;21017;-64
2022/03/19 05:03:06;;;;;;;126.65;80.05;;;;;;;11.74;39.54;102458.26;1831778;78;21057;-65
2022/03/19 05:05:34;;;;;;;121.95;78.42;;;;;;;11.74;39.56;102453.39;1830951;77;21001;-64
2022/03/19 05:08:01;;;;;;;116.82;77.65;;;;;;;11.74;39.55;102450.27;1831809;77;21056;-64
2022/03/19 05:13:13;;;;;;;119.65;79.12;;;;;;;11.75;39.55;102453.29;1831839;77;21616;-62
2022/03/19 05:15:40;;;;;;;118.30;79.72;;;;;;;11.75;39.55;102454.62;1831916;77;21042;-64
2022/03/19 05:18:07;;;;;;;124.82;81.72;;;;;;;11.76;39.56;102451.47;1831826;78;21215;-64
2022/03/19 05:20:35;;;;;;;120.13;76.65;;;;;;;11.75;39.56;102451.95;1831717;77;21515;-64
2022/03/19 05:23:06;;;;;;;114.17;76.40;;;;;;;11.76;39.56;102448.80;1817590;77;21060;-64
2022/03/19 05:25:35;;;;;;;122.37;77.80;;;;;;;11.77;39.54;102454.52;1825859;78;20985;-63
2022/03/19 05:28:03;;;;;;;120.42;80.77;;;;;;;11.77;39.55;102458.02;1799218;79;21597;-63
2022/03/19 05:30:32;;;;;;;117.33;78.45;;;;;;;11.77;39.57;102459.36;1799166;79;21045;-64
2022/03/19 05:32:58;;;;;;;120.85;79.40;;;;;;;11.79;39.56;102465.91;1799186;79;20986;-63
2022/03/19 05:35:26;;;;;;;116.47;80.20;;;;;;;11.81;39.56;102466.65;1799115;79;20973;-64
2022/03/19 05:37:54;;;;;;;119.33;77.80;;;;;;;11.80;39.54;102463.14;1793937;79;21019;-63
2022/03/19 05:40:21;;;;;;;129.68;79.17;;;;;;;11.83;39.54;102460.73;1799690;77;21064;-64
2022/03/19 05:42:48;;;;;;;119.70;78.52;;;;;;;11.84;39.54;102466.90;1825909;78;21227;-64
2022/03/19 05:45:16;;;;;;;120.45;79.00;;;;;;;11.85;39.54;102461.47;1825692;78;21474;-64
2022/03/19 05:47:44;;;;;;;120.15;77.12;;;;;;;11.87;39.54;102469.36;1825664;78;21446;-64
2022/03/19 05:50:12;;;;;;;123.20;79.35;;;;;;;11.87;39.52;102471.53;1825583;78;20981;-64
2022/03/19 05:52:40;;;;;;;116.15;79.15;;;;;;;11.88;39.52;102471.92;1825747;78;20986;-63
2022/03/19 05:55:09;;;;;;;121.82;79.12;;;;;;;11.90;39.52;102472.69;1825944;78;21141;-63
2022/03/19 05:57:38;;;;;;;115.85;78.22;;;;;;;11.92;39.51;102476.09;1824614;78;21611;-64
2022/03/19 06:00:07;;;;;;;121.13;76.53;;;;;;;11.93;39.50;102471.13;1825912;78;21021;-64
2022/03/19 06:02:41;;;;;;;123.83;76.77;;;;;;;11.94;39.50;102480.83;1825898;78;20990;-64
2022/03/19 06:05:09;;;;;;;115.03;73.72;;;;;;;11.96;39.51;102480.23;1825609;78;21014;-64
2022/03/19 06:07:37;;;;;;;108.67;72.92;;;;;;;11.98;39.50;102486.30;1825828;78;21238;-65
2022/03/19 06:10:08;;;;;;;119.13;74.70;;;;;;;12.00;39.49;102486.20;1825888;78;21002;-63
2022/03/19 06:12:36;;;;;;;112.90;75.25;;;;;;;12.00;39.49;102489.70;1825993;78;21029;-63
2022/03/19 06:15:06;;;;;;;107.25;71.72;;;;;;;12.03;39.50;102492.62;1824621;78;20998;-64
2022/03/19 06:17:34;;;;;;;111.57;74.30;;;;;;;12.05;39.49;102488.52;1825879;78;21033;-64
2022/03/19 06:20:01;;;;;;;108.25;71.80;;;;;;;12.06;39.49;102491.08;1825889;78;21211;-65
2022/03/19 06:22:27;;;;;;;105.70;69.35;;;;;;;12.09;39.49;102496.20;1825792;78;21088;-63
2022/03/19 06:24:54;;;;;;;104.53;70.90;;;;;;;12.11;39.51;102490.73;1825925;78;21025;-62
2022/03/19 06:27:20;;;;;;;102.05;68.22;;;;;;;12.12;39.49;102486.63;1825760;78;20992;-64
2022/03/19 06:29:47;;;;;;;110.68;67.67;;;;;;;12.14;39.48;102483.86;1825397;78;21022;-63
2022/03/19 06:32:20;;;;;;;104.92;67.35;;;;;;;12.15;39.47;102486.42;1815513;78;21221;-64
2022/03/19 06:34:45;;;;;;;106.87;67.92;;;;;;;12.17;39.49;102490.31;1825666;78;21542;-64
2022/03/19 06:37:21;;;;;;;112.80;70.65;;;;;;;12.19;39.49;102486.56;1825662;76;21041;-63
2022/03/19 06:39:54;;;;;;;98.87;66.95;;;;;;;12.21;39.47;102485.13;1825958;78;21037;-63
2022/03/19 06:42:22;;;;;;;101.95;66.75;;;;;;;12.23;39.47;102492.53;1826395;78;21025;-64
2022/03/19 06:44:49;;;;;;;102.07;65.08;;;;;;;12.24;39.45;102484.89;1825823;78;21203;-63
2022/03/19 06:47:16;;;;;;;98.95;65.22;;;;;;;12.26;39.46;102481.63;1821733;78;21070;-63
2022/03/19 06:49:42;;;;;;;100.05;64.90;;;;;;;12.29;39.45;102483.23;1793407;80;21021;-63
2022/03/19 06:52:10;;;;;;;91.05;63.15;;;;;;;12.31;39.44;102479.48;1793331;80;21005;-63
2022/03/19 06:54:37;;;;;;;89.22;62.88;;;;;;;12.32;39.42;102479.87;1793517;80;21525;-64
2022/03/19 06:57:05;;;;;;;98.67;61.45;;;;;;;12.35;39.42;102480.11;1793392;80;21145;-65
2022/03/19 06:59:32;;;;;;;91.08;61.68;;;;;;;12.37;39.42;102484.85;1793293;80;21079;-64
2022/03/19 07:01:59;;;;;;;94.65;61.45;;;;;;;12.38;39.39;102484.74;1793278;80;21094;-64
2022/03/19 07:04:26;;;;;;;92.17;61.00;;;;;;;12.41;39.39;102480.98;1794378;78;20994;-64
2022/03/19 07:06:53;;;;;;;92.92;60.25;;;;;;;12.43;39.38;102481.73;1793433;80;21017;-64
2022/03/19 07:09:20;;;;;;;87.85;58.60;;;;;;;12.45;39.37;102480.28;1793334;80;21342;-63
2022/03/19 07:11:46;;;;;;;91.47;58.92;;;;;;;12.47;39.36;102483.20;1793266;80;21030;-64
2022/03/19 07:14:13;;;;;;;88.22;59.20;;;;;;;12.49;39.34;102482.59;1793333;80;21513;-64
2022/03/19 07:16:42;;;;;;;87.62;57.23;;;;;;;12.51;39.33;102487.83;1793384;79;21018;-64
2022/03/19 07:19:08;;;;;;;88.00;57.90;;;;;;;12.53;39.32;102489.41;1793363;79;21041;-64
2022/03/19 07:21:35;;;;;;;89.95;58.63;;;;;;;12.56;39.30;102488.34;1817936;78;21187;-65
2022/03/19 07:24:01;;;;;;;82.75;57.65;;;;;;;12.58;39.29;102489.08;1825932;78;21036;-65
2022/03/19 07:26:28;;;;;;;78.75;53.68;;;;;;;12.61;39.29;102489.33;1825835;78;21002;-64
2022/03/19 07:28:54;;;;;;;76.05;52.80;;;;;;;12.62;39.29;102491.04;1825835;78;21033;-63
2022/03/19 07:31:21;;;;;;;79.00;53.75;;;;;;;12.64;39.27;102483.28;1825845;78;21029;-63
2022/03/19 07:33:50;;;;;;;78.78;51.60;;;;;;;12.66;39.26;102483.17;1825945;78;21446;-64
2022/03/19 07:36:19;;;;;;;79.05;52.78;;;;;;;12.68;39.24;102475.42;1822837;78;21017;-63
2022/03/19 07:38:46;;;;;;;72.10;50.48;;;;;;;12.70;39.27;102480.15;1811084;78;21521;-64
2022/03/19 07:43:57;;;;;;;75.35;50.48;;;;;;;12.75;39.25;102475.83;1793531;79;21041;-64
2022/03/19 07:46:27;;;;;;;74.75;50.25;;;;;;;12.77;39.24;102476.56;1793321;80;21088;-65
2022/03/19 07:48:53;;;;;;;73.28;49.60;;;;;;;12.81;39.23;102477.18;1793251;80;21006;-65
2022/03/19 07:51:20;;;;;;;72.70;49.80;;;;;;;12.82;39.22;102474.37;1793303;79;21037;-64
2022/03/19 07:53:48;;;;;;;68.75;47.30;;;;;;;12.86;39.24;102477.66;1793276;79;21041;-66
2022/03/19 07:56:15;;;;;;;68.70;48.48;;;;;;;12.89;39.22;102482.78;1794245;78;21021;-64
2022/03/19 07:58:42;;;;;;;73.20;48.28;;;;;;;12.92;39.20;102479.86;1793363;80;21218;-63
2022/03/19 08:01:08;;;;;;;72.75;47.13;;;;;;;12.93;39.19;102475.75;1793193;80;20986;-64
2022/03/19 08:03:35;;;;;;;66.92;45.95;;;;;;;12.96;39.17;102480.86;1793465;80;21025;-64
2022/03/19 08:06:03;;;;;;;69.62;45.85;;;;;;;12.99;39.17;102475.77;1793364;80;21057;-64
2022/03/19 08:08:30;;;;;;;61.35;44.60;;;;;;;13.02;39.15;102483.55;1793296;79;21076;-63
2022/03/19 08:10:57;;;;;;;66.53;45.67;;;;;;;13.05;39.14;102481.12;1793595;79;21203;-64
2022/03/19 08:13:24;;;;;;;66.22;44.38;;;;;;;13.07;39.13;102480.02;1794242;78;21025;-64
2022/03/19 08:15:51;;;;;;;58.05;42.10;;;;;;;13.09;39.11;102478.09;1793303;80;21541;-64
2022/03/19 08:18:18;;;;;;;62.00;43.78;;;;;;;13.11;39.11;102474.81;1793193;80;21010;-64
2022/03/19 08:20:46;;;;;;;60.83;42.05;;;;;;;13.15;39.14;102478.09;1807535;78;21052;-64
2022/03/19 08:23:15;;;;;;;60.50;42.98;;;;;;;13.17;39.10;102478.37;1825681;78;21227;-63
2022/03/19 08:25:42;;;;;;;59.55;41.25;;;;;;;13.18;39.11;102478.72;1825733;78;21053;-63
2022/03/19 08:28:09;;;;;;;56.30;40.70;;;;;;;13.23;39.10;102482.39;1825771;78;21018;-63
2022/03/19 08:30:37;;;;;;;59.53;40.52;;;;;;;13.25;39.10;102472.44;1824741;78;20946;-64
2022/03/19 08:33:03;;;;;;;56.80;39.63;;;;;;;13.28;39.07;102471.34;1826133;78;21026;-64
2022/03/19 08:35:30;;;;;;;52.13;37.80;;;;;;;13.31;39.06;102476.48;1825870;78;21246;-64
2022/03/19 08:40:41;;;;;;;56.02;38.95;;;;;;;13.37;39.07;102474.67;1831961;77;21006;-64
2022/03/19 08:43:08;;;;;;;54.38;36.30;;;;;;;13.41;39.08;102471.28;1831948;77;21469;-65
2022/03/19 08:45:34;;;;;;;55.23;38.63;;;;;;;13.43;39.10;102474.19;1832010;78;21446;-65
2022/03/19 08:48:01;;;;;;;48.58;37.00;;;;;;;13.46;39.09;102469.95;1804116;78;21886;-64
2022/03/19 08:50:28;;;;;;;52.48;35.30;;;;;;;13.49;39.10;102475.03;1799045;79;21037;-65
2022/03/19 08:52:55;;;;;;;53.25;35.52;;;;;;;13.53;39.14;102472.97;1799141;79;21068;-64
2022/03/19 08:55:21;;;;;;;51.55;36.23;;;;;;;13.55;39.20;102462.52;1799146;79;21104;-64
2022/03/19 08:57:48;;;;;;;48.25;34.73;;;;;;;13.60;39.19;102470.19;1799356;79;21529;-65
2022/03/19 09:00:16;;;;;;;51.58;35.45;;;;;;;13.65;39.25;102472.48;1799086;79;21741;-63
2022/03/19 09:02:43;;;;;;;46.92;35.75;;;;;;;13.69;39.28;102475.28;1799262;79;21017;-63
2022/03/19 09:05:10;;;;;;;46.68;33.80;;;;;;;13.72;39.29;102472.38;1784692;79;21005;-64
2022/03/19 09:07:37;;;;;;;45.88;33.28;;;;;;;13.76;39.30;102472.00;1799120;79;21021;-64
2022/03/19 09:10:05;;;;;;;47.27;33.67;;;;;;;13.80;39.28;102467.75;1799144;79;21040;-64
2022/03/19 09:12:33;;;;;;;42.53;31.95;;;;;;;13.85;39.24;102469.09;1799197;79;21012;-65
2022/03/19 09:15:01;;;;;;;44.90;33.42;;;;;;;13.90;39.12;102468.20;1799061;79;21005;-63
2022/03/19 09:17:27;;;;;;;49.53;33.42;;;;;;;13.94;39.05;102466.98;1799121;79;21013;-64
2022/03/19 09:19:55;;;;;;;44.13;29.72;;;;;;;14.01;38.94;102462.51;1802575;78;21013;-64
2022/03/19 09:22:23;;;;;;;45.83;31.93;;;;;;;14.06;38.85;102465.17;1800034;78;21029;-64
2022/03/19 09:24:49;;;;;;;40.50;28.98;;;;;;;14.12;38.82;102471.84;1799227;79;21328;-64
2022/03/19 09:27:16;;;;;;;41.75;30.17;;;;;;;14.18;38.79;102471.34;1799046;79;21012;-63
2022/03/19 09:29:42;;;;;;;43.73;30.92;;;;;;;14.26;38.74;102474.73;1799444;79;20993;-64
2022/03/19 09:32:12;;;;;;;40.30;30.65;;;;;;;14.33;38.81;102477.23;1799195;79;21076;-64
2022/03/19 09:34:40;;;;;;;39.65;29.45;;;;;;;14.39;38.76;102464.72;1799041;79;21065;-64
2022/03/19 09:37:06;;;;;;;39.00;29.98;;;;;;;14.46;38.91;102465.05;1799995;77;21462;-64
2022/03/19 09:39:34;;;;;;;39.15;28.85;;;;;;;14.52;39.10;102462.70;1793303;79;21080;-65
2022/03/19 09:42:02;;;;;;;36.15;27.02;;;;;;;14.60;39.24;102460.76;1793396;80;21025;-65
2022/03/19 09:44:29;;;;;;;38.17;27.60;;;;;;;14.67;39.36;102457.94;1793237;79;21620;-65
2022/03/19 09:46:56;;;;;;;38.42;28.32;;;;;;;14.74;39.41;102459.12;1801673;78;21521;-64
2022/03/19 09:49:23;;;;;;;39.23;28.60;;;;;;;14.82;39.47;102460.32;1819308;78;22139;-64
2022/03/19 09:52:40;;;;;;;38.05;27.13;;;;;;;14.98;39.46;102460.70;1889363;76;28569;-64
2022/03/19 09:55:05;;;;;;;37.03;26.62;;;;;;;15.03;39.34;102453.63;1854559;77;21458;-64
2022/03/19 09:57:32;;;;;;;33.53;26.42;;;;;;;15.11;39.29;102443.95;1781431;80;21915;-65
2022/03/19 10:00:00;;;;;;;34.38;25.40;;;;;;;15.21;39.20;102441.83;1794004;80;20986;-64
2022/03/19 10:02:26;;;;;;;36.63;24.95;;;;;;;15.28;39.25;102441.66;1793945;80;20887;-65
2022/03/19 10:04:54;;;;;;;33.88;25.52;;;;;;;15.37;39.18;102446.69;1793974;80;21553;-63
2022/03/19 10:10:11;;;;;;;34.08;24.50;;;;;;;15.54;39.06;102448.73;1794071;80;21249;-65
2022/03/19 10:12:39;;;;;;;29.87;22.87;;;;;;;15.64;39.04;102444.76;1793432;80;21522;-64
2022/03/19 10:15:10;;;;;;;32.00;24.15;;;;;;;15.71;38.94;102445.42;1737313;80;20965;-63
2022/03/19 10:17:39;;;;;;;30.40;22.45;;;;;;;15.80;38.84;102434.89;1793956;80;21057;-64
2022/03/19 10:20:11;;;;;;;30.27;22.62;;;;;;;15.90;38.76;102439.30;1788570;80;21061;-63
2022/03/19 10:22:44;;;;;;;30.85;22.77;;;;;;;16.00;38.70;102435.80;1762967;81;21121;-64
2022/03/19 10:25:13;;;;;;;30.12;21.07;;;;;;;16.08;38.63;102436.80;1762555;81;21080;-65
2022/03/19 10:27:42;;;;;;;29.37;22.40;;;;;;;16.19;38.57;102434.99;1762951;81;21073;-63
2022/03/19 10:30:19;;;;;;;31.68;22.42;;;;;;;16.29;38.48;102434.00;1779977;80;21006;-64
2022/03/19 10:32:52;;;;;;;28.32;20.32;;;;;;;16.39;38.43;102425.95;1781527;80;21066;-65
2022/03/19 10:35:32;;;;;;;27.27;21.02;;;;;;;16.49;38.36;102423.27;1781635;80;21196;-65
2022/03/19 10:38:05;;;;;;;26.25;20.23;;;;;;;16.59;38.29;102420.11;1781421;80;21017;-65
2022/03/19 10:40:40;;;;;;;27.90;19.82;;;;;;;16.70;38.23;102425.80;1781348;80;21542;-64
2022/03/19 10:43:08;;;;;;;29.27;20.80;;;;;;;16.79;38.19;102420.08;1781546;80;21819;-65
2022/03/19 10:45:48;;;;;;;25.35;19.75;;;;;;;16.89;38.14;102412.38;1781805;80;21002;-65
2022/03/19 10:48:22;;;;;;;25.30;19.15;;;;;;;16.99;38.09;102404.30;1755456;80;21228;-63
2022/03/19 10:50:50;;;;;;;24.45;18.73;;;;;;;17.08;38.04;102415.52;1774462;80;21097;-65
2022/03/19 10:53:22;;;;;;;25.75;19.37;;;;;;;17.19;38.00;102409.61;1747755;81;21148;-65
2022/03/19 10:55:48;;;;;;;22.70;17.98;;;;;;;17.28;37.96;102403.36;1764759;80;21054;-64
2022/03/19 10:58:16;;;;;;;23.70;19.07;;;;;;;17.38;37.95;102409.53;1760437;81;21066;-64
2022/03/19 11:00:44;;;;;;;23.98;19.05;;;;;;;17.48;37.94;102407.66;1760325;81;21260;-65
2022/03/19 11:03:13;;;;;;;22.62;17.02;;;;;;;17.58;37.88;102408.12;1769641;79;21549;-64
2022/03/19 11:05:39;;;;;;;23.05;18.30;;;;;;;17.68;37.86;102408.41;1777079;80;21041;-65
2022/03/19 11:08:09;;;;;;;22.13;17.87;;;;;;;17.79;37.82;102410.05;1777069;80;21002;-63
2022/03/19 11:10:37;;;;;;;23.77;17.95;;;;;;;17.89;37.78;102404.64;1747893;80;21858;-64
2022/03/19 11:13:06;;;;;;;19.67;16.87;;;;;;;18.01;37.73;102397.20;1776988;80;21235;-64
2022/03/19 11:15:34;;;;;;;23.57;17.02;;;;;;;18.10;37.71;102390.91;1776881;79;21006;-65
2022/03/19 11:18:09;;;;;;;19.87;16.45;;;;;;;18.20;37.67;102403.78;1776961;80;21542;-64
2022/03/19 11:20:36;;;;;;;18.55;15.35;;;;;;;18.31;37.63;102393.77;1789547;79;21002;-65
2022/03/19 11:23:05;;;;;;;19.87;15.95;;;;;;;18.41;37.55;102395.39;1808865;79;21002;-64
2022/03/19 11:25:50;;;;;;;21.27;16.35;;;;;;;18.52;37.53;102390.25;1808753;79;21379;-64
2022/03/19 11:28:17;;;;;;;17.40;14.03;;;;;;;18.63;37.49;102387.31;1808709;78;21068;-64